La Fayette, Kentucky
Current Conditions -  °F | °C
As of 5:28 AM on Thursday 18 Dec 2014 (Local Time) from KHOP Reporting Station
Drizzle Drizzle  
Wind Chill: 26°   Ceiling: 7000
Heat Index: 32°   Visibility: 10mi
Dew Point: 28°   Wind: 7mph
Humidity: 87%   Direction: 90°E
Pressure: 30.23"   Gusts: NA
Location:  36.66°N, 87.66°W
Report Text: KHOP 181128Z 09006KT 10SM -DZ FEW007 SCT035 OVC070 00/M02 A3023 RMK AO2A PRESFR
Loading
Personal Weather Stations






























Interactive Weather Map New forecast layout! Learn more

10-Day Weather Forecast

Advertisements
Track Severe Weather on mobile